sensor_id;sensor_type;location;lat;lon;timestamp;P1;durP1;ratioP1;P2;durP2;ratioP2
21941;SDS011;11135;54.192;15.670;2023-09-08T00:00:31;11.98;;;10.77;;
21941;SDS011;11135;54.192;15.670;2023-09-08T00:04:06;11.98;;;10.77;;
21941;SDS011;11135;54.192;15.670;2023-09-08T00:07:32;12.32;;;11.13;;
21941;SDS011;11135;54.192;15.670;2023-09-08T00:11:01;12.13;;;10.82;;
21941;SDS011;11135;54.192;15.670;2023-09-08T00:14:27;12.95;;;11.45;;
21941;SDS011;11135;54.192;15.670;2023-09-08T00:17:53;11.68;;;10.48;;
21941;SDS011;11135;54.192;15.670;2023-09-08T00:21:19;12.18;;;10.98;;
21941;SDS011;11135;54.192;15.670;2023-09-08T00:24:45;11.15;;;9.93;;
21941;SDS011;11135;54.192;15.670;2023-09-08T00:28:13;11.45;;;10.27;;
21941;SDS011;11135;54.192;15.670;2023-09-08T00:31:39;11.93;;;10.27;;
21941;SDS011;11135;54.192;15.670;2023-09-08T00:35:06;12.18;;;10.93;;
21941;SDS011;11135;54.192;15.670;2023-09-08T00:38:32;12.35;;;11.15;;
21941;SDS011;11135;54.192;15.670;2023-09-08T00:41:59;11.05;;;9.77;;
21941;SDS011;11135;54.192;15.670;2023-09-08T00:45:28;11.52;;;10.32;;
21941;SDS011;11135;54.192;15.670;2023-09-08T00:48:55;12.98;;;11.38;;
21941;SDS011;11135;54.192;15.670;2023-09-08T00:52:23;12.75;;;11.45;;
21941;SDS011;11135;54.192;15.670;2023-09-08T00:55:53;12.60;;;10.93;;
21941;SDS011;11135;54.192;15.670;2023-09-08T00:59:20;11.23;;;10.10;;
21941;SDS011;11135;54.192;15.670;2023-09-08T01:02:49;11.43;;;10.23;;
21941;SDS011;11135;54.192;15.670;2023-09-08T01:06:19;11.07;;;9.98;;
21941;SDS011;11135;54.192;15.670;2023-09-08T01:09:45;12.07;;;10.82;;
21941;SDS011;11135;54.192;15.670;2023-09-08T01:13:12;12.43;;;10.65;;
21941;SDS011;11135;54.192;15.670;2023-09-08T01:16:38;11.40;;;10.30;;
21941;SDS011;11135;54.192;15.670;2023-09-08T01:20:08;12.32;;;10.88;;
21941;SDS011;11135;54.192;15.670;2023-09-08T01:23:42;12.48;;;10.73;;
21941;SDS011;11135;54.192;15.670;2023-09-08T01:27:18;11.98;;;10.20;;
21941;SDS011;11135;54.192;15.670;2023-09-08T01:30:44;12.85;;;10.77;;
21941;SDS011;11135;54.192;15.670;2023-09-08T01:34:11;11.63;;;10.43;;
21941;SDS011;11135;54.192;15.670;2023-09-08T01:37:39;11.93;;;10.82;;
21941;SDS011;11135;54.192;15.670;2023-09-08T01:41:05;13.20;;;11.63;;
21941;SDS011;11135;54.192;15.670;2023-09-08T01:44:34;12.30;;;10.88;;
21941;SDS011;11135;54.192;15.670;2023-09-08T01:48:02;11.77;;;10.65;;
21941;SDS011;11135;54.192;15.670;2023-09-08T01:51:27;11.50;;;10.25;;
21941;SDS011;11135;54.192;15.670;2023-09-08T01:54:54;13.48;;;11.63;;
21941;SDS011;11135;54.192;15.670;2023-09-08T01:58:19;12.93;;;11.63;;
21941;SDS011;11135;54.192;15.670;2023-09-08T02:01:50;12.82;;;11.57;;
21941;SDS011;11135;54.192;15.670;2023-09-08T02:05:15;11.27;;;10.18;;
21941;SDS011;11135;54.192;15.670;2023-09-08T02:08:43;13.90;;;12.00;;
21941;SDS011;11135;54.192;15.670;2023-09-08T02:12:11;12.30;;;11.07;;
21941;SDS011;11135;54.192;15.670;2023-09-08T02:15:37;12.68;;;11.40;;
21941;SDS011;11135;54.192;15.670;2023-09-08T02:19:06;14.15;;;11.55;;
21941;SDS011;11135;54.192;15.670;2023-09-08T02:22:34;14.48;;;11.25;;
21941;SDS011;11135;54.192;15.670;2023-09-08T02:26:00;13.35;;;11.85;;
21941;SDS011;11135;54.192;15.670;2023-09-08T02:29:26;11.50;;;10.40;;
21941;SDS011;11135;54.192;15.670;2023-09-08T02:32:54;12.25;;;11.15;;
21941;SDS011;11135;54.192;15.670;2023-09-08T02:36:23;13.07;;;11.50;;
21941;SDS011;11135;54.192;15.670;2023-09-08T02:39:50;11.98;;;10.77;;
21941;SDS011;11135;54.192;15.670;2023-09-08T02:43:16;12.70;;;11.40;;
21941;SDS011;11135;54.192;15.670;2023-09-08T02:46:42;13.68;;;12.27;;
21941;SDS011;11135;54.192;15.670;2023-09-08T02:50:09;12.80;;;11.50;;
21941;SDS011;11135;54.192;15.670;2023-09-08T02:53:37;17.08;;;12.25;;
21941;SDS011;11135;54.192;15.670;2023-09-08T02:57:05;11.95;;;10.75;;
21941;SDS011;11135;54.192;15.670;2023-09-08T03:00:30;13.32;;;11.57;;
21941;SDS011;11135;54.192;15.670;2023-09-08T03:03:57;12.55;;;11.38;;
21941;SDS011;11135;54.192;15.670;2023-09-08T03:07:23;13.13;;;11.52;;
21941;SDS011;11135;54.192;15.670;2023-09-08T03:10:53;14.25;;;11.85;;
21941;SDS011;11135;54.192;15.670;2023-09-08T03:14:21;11.85;;;10.65;;
21941;SDS011;11135;54.192;15.670;2023-09-08T03:17:47;12.07;;;10.88;;
21941;SDS011;11135;54.192;15.670;2023-09-08T03:21:15;11.48;;;10.32;;
21941;SDS011;11135;54.192;15.670;2023-09-08T03:24:42;13.70;;;12.38;;
21941;SDS011;11135;54.192;15.670;2023-09-08T03:28:11;12.60;;;11.27;;
21941;SDS011;11135;54.192;15.670;2023-09-08T03:31:37;12.60;;;11.10;;
21941;SDS011;11135;54.192;15.670;2023-09-08T03:35:03;11.45;;;10.35;;
21941;SDS011;11135;54.192;15.670;2023-09-08T03:38:30;12.80;;;11.10;;
21941;SDS011;11135;54.192;15.670;2023-09-08T03:41:57;11.93;;;10.73;;
21941;SDS011;11135;54.192;15.670;2023-09-08T03:45:26;13.43;;;9.80;;
21941;SDS011;11135;54.192;15.670;2023-09-08T03:48:54;13.95;;;10.93;;
21941;SDS011;11135;54.192;15.670;2023-09-08T03:52:23;10.95;;;9.68;;
21941;SDS011;11135;54.192;15.670;2023-09-08T03:55:50;12.98;;;11.57;;
21941;SDS011;11135;54.192;15.670;2023-09-08T03:59:16;12.75;;;10.30;;
21941;SDS011;11135;54.192;15.670;2023-09-08T04:02:45;11.98;;;10.75;;
21941;SDS011;11135;54.192;15.670;2023-09-08T04:06:11;12.20;;;11.00;;
21941;SDS011;11135;54.192;15.670;2023-09-08T04:09:37;12.52;;;11.15;;
21941;SDS011;11135;54.192;15.670;2023-09-08T04:13:04;12.60;;;10.55;;
21941;SDS011;11135;54.192;15.670;2023-09-08T04:16:29;12.68;;;11.38;;
21941;SDS011;11135;54.192;15.670;2023-09-08T04:19:58;12.38;;;11.10;;
21941;SDS011;11135;54.192;15.670;2023-09-08T04:23:27;13.10;;;11.13;;
21941;SDS011;11135;54.192;15.670;2023-09-08T04:26:53;15.65;;;13.32;;
21941;SDS011;11135;54.192;15.670;2023-09-08T04:30:19;13.30;;;10.18;;
21941;SDS011;11135;54.192;15.670;2023-09-08T04:33:45;10.85;;;9.75;;
21941;SDS011;11135;54.192;15.670;2023-09-08T04:37:16;12.73;;;10.90;;
21941;SDS011;11135;54.192;15.670;2023-09-08T04:40:44;12.68;;;10.90;;
21941;SDS011;11135;54.192;15.670;2023-09-08T04:44:10;11.07;;;9.95;;
21941;SDS011;11135;54.192;15.670;2023-09-08T04:47:36;11.27;;;9.98;;
21941;SDS011;11135;54.192;15.670;2023-09-08T04:51:03;10.30;;;9.20;;
21941;SDS011;11135;54.192;15.670;2023-09-08T04:54:31;11.43;;;10.20;;
21941;SDS011;11135;54.192;15.670;2023-09-08T04:57:57;12.55;;;10.70;;
21941;SDS011;11135;54.192;15.670;2023-09-08T05:01:24;10.85;;;9.75;;
21941;SDS011;11135;54.192;15.670;2023-09-08T05:04:49;12.68;;;9.13;;
21941;SDS011;11135;54.192;15.670;2023-09-08T05:08:17;11.45;;;9.48;;
21941;SDS011;11135;54.192;15.670;2023-09-08T05:11:46;10.93;;;9.85;;
21941;SDS011;11135;54.192;15.670;2023-09-08T05:15:12;10.45;;;9.35;;
21941;SDS011;11135;54.192;15.670;2023-09-08T05:18:39;12.52;;;9.95;;
21941;SDS011;11135;54.192;15.670;2023-09-08T05:22:05;11.32;;;10.23;;
21941;SDS011;11135;54.192;15.670;2023-09-08T05:25:31;10.05;;;9.05;;
21941;SDS011;11135;54.192;15.670;2023-09-08T05:29:01;10.10;;;9.10;;
21941;SDS011;11135;54.192;15.670;2023-09-08T05:32:26;9.98;;;8.95;;
21941;SDS011;11135;54.192;15.670;2023-09-08T05:35:53;11.13;;;9.25;;
21941;SDS011;11135;54.192;15.670;2023-09-08T05:39:18;10.65;;;9.18;;
21941;SDS011;11135;54.192;15.670;2023-09-08T05:42:44;10.27;;;8.80;;
21941;SDS011;11135;54.192;15.670;2023-09-08T05:46:13;10.18;;;9.18;;
21941;SDS011;11135;54.192;15.670;2023-09-08T05:49:42;9.65;;;8.48;;
21941;SDS011;11135;54.192;15.670;2023-09-08T05:53:08;10.90;;;9.10;;
21941;SDS011;11135;54.192;15.670;2023-09-08T05:56:36;11.20;;;9.20;;
21941;SDS011;11135;54.192;15.670;2023-09-08T06:00:02;10.48;;;9.38;;
21941;SDS011;11135;54.192;15.670;2023-09-08T06:03:31;9.20;;;8.30;;
21941;SDS011;11135;54.192;15.670;2023-09-08T06:06:58;9.63;;;8.63;;
21941;SDS011;11135;54.192;15.670;2023-09-08T06:10:27;10.52;;;7.95;;
21941;SDS011;11135;54.192;15.670;2023-09-08T06:13:54;10.25;;;8.07;;
21941;SDS011;11135;54.192;15.670;2023-09-08T06:17:22;11.40;;;8.82;;
21941;SDS011;11135;54.192;15.670;2023-09-08T06:20:55;11.40;;;7.72;;
21941;SDS011;11135;54.192;15.670;2023-09-08T06:24:21;12.57;;;9.15;;
21941;SDS011;11135;54.192;15.670;2023-09-08T06:27:49;12.38;;;8.82;;
21941;SDS011;11135;54.192;15.670;2023-09-08T06:31:17;9.02;;;7.97;;
21941;SDS011;11135;54.192;15.670;2023-09-08T06:34:43;10.88;;;8.25;;
21941;SDS011;11135;54.192;15.670;2023-09-08T06:38:12;9.07;;;8.02;;
21941;SDS011;11135;54.192;15.670;2023-09-08T06:41:38;9.32;;;8.27;;
21941;SDS011;11135;54.192;15.670;2023-09-08T06:45:05;10.40;;;8.50;;
21941;SDS011;11135;54.192;15.670;2023-09-08T06:48:30;8.77;;;7.88;;
21941;SDS011;11135;54.192;15.670;2023-09-08T06:52:00;10.52;;;8.30;;
21941;SDS011;11135;54.192;15.670;2023-09-08T06:55:29;9.57;;;7.75;;
21941;SDS011;11135;54.192;15.670;2023-09-08T06:58:58;8.75;;;7.57;;
21941;SDS011;11135;54.192;15.670;2023-09-08T07:02:25;8.38;;;7.10;;
21941;SDS011;11135;54.192;15.670;2023-09-08T07:05:52;9.18;;;7.22;;
21941;SDS011;11135;54.192;15.670;2023-09-08T07:09:17;8.23;;;7.40;;
21941;SDS011;11135;54.192;15.670;2023-09-08T07:12:46;10.68;;;7.50;;
21941;SDS011;11135;54.192;15.670;2023-09-08T07:16:12;9.90;;;7.60;;
21941;SDS011;11135;54.192;15.670;2023-09-08T07:19:39;8.65;;;7.60;;
21941;SDS011;11135;54.192;15.670;2023-09-08T07:23:05;10.38;;;7.75;;
21941;SDS011;11135;54.192;15.670;2023-09-08T07:26:33;8.95;;;7.93;;
21941;SDS011;11135;54.192;15.670;2023-09-08T07:30:02;8.38;;;7.43;;
21941;SDS011;11135;54.192;15.670;2023-09-08T07:33:29;10.48;;;8.10;;
21941;SDS011;11135;54.192;15.670;2023-09-08T07:36:54;8.57;;;6.63;;
21941;SDS011;11135;54.192;15.670;2023-09-08T07:40:20;10.15;;;7.43;;
21941;SDS011;11135;54.192;15.670;2023-09-08T07:43:46;8.38;;;7.55;;
21941;SDS011;11135;54.192;15.670;2023-09-08T07:47:16;7.43;;;6.72;;
21941;SDS011;11135;54.192;15.670;2023-09-08T07:50:42;8.00;;;7.20;;
21941;SDS011;11135;54.192;15.670;2023-09-08T07:54:11;7.82;;;6.82;;
21941;SDS011;11135;54.192;15.670;2023-09-08T07:57:37;9.38;;;6.97;;
21941;SDS011;11135;54.192;15.670;2023-09-08T08:01:05;9.95;;;6.82;;
21941;SDS011;11135;54.192;15.670;2023-09-08T08:04:34;8.38;;;7.00;;
21941;SDS011;11135;54.192;15.670;2023-09-08T08:08:00;7.35;;;6.65;;
21941;SDS011;11135;54.192;15.670;2023-09-08T08:11:25;10.18;;;7.93;;
21941;SDS011;11135;54.192;15.670;2023-09-08T08:14:52;7.97;;;6.50;;
21941;SDS011;11135;54.192;15.670;2023-09-08T08:18:18;7.75;;;6.95;;
21941;SDS011;11135;54.192;15.670;2023-09-08T08:21:47;8.20;;;6.55;;
21941;SDS011;11135;54.192;15.670;2023-09-08T08:25:13;9.07;;;6.90;;
21941;SDS011;11135;54.192;15.670;2023-09-08T08:28:39;7.70;;;6.90;;
21941;SDS011;11135;54.192;15.670;2023-09-08T08:32:06;8.45;;;6.68;;
21941;SDS011;11135;54.192;15.670;2023-09-08T08:35:32;8.00;;;7.28;;
21941;SDS011;11135;54.192;15.670;2023-09-08T08:39:02;7.32;;;6.55;;
21941;SDS011;11135;54.192;15.670;2023-09-08T08:42:31;8.02;;;6.50;;
21941;SDS011;11135;54.192;15.670;2023-09-08T08:45:58;7.95;;;7.13;;
21941;SDS011;11135;54.192;15.670;2023-09-08T08:49:26;10.38;;;8.18;;
21941;SDS011;11135;54.192;15.670;2023-09-08T08:52:52;7.43;;;6.53;;
21941;SDS011;11135;54.192;15.670;2023-09-08T08:56:30;7.40;;;6.22;;
21941;SDS011;11135;54.192;15.670;2023-09-08T08:59:56;8.55;;;6.40;;
21941;SDS011;11135;54.192;15.670;2023-09-08T09:03:23;7.47;;;6.22;;
21941;SDS011;11135;54.192;15.670;2023-09-08T09:06:51;8.73;;;6.35;;
21941;SDS011;11135;54.192;15.670;2023-09-08T09:10:19;7.07;;;5.97;;
21941;SDS011;11135;54.192;15.670;2023-09-08T09:13:48;7.63;;;6.10;;
21941;SDS011;11135;54.192;15.670;2023-09-08T09:17:16;7.97;;;6.85;;
21941;SDS011;11135;54.192;15.670;2023-09-08T09:20:42;7.45;;;6.53;;
21941;SDS011;11135;54.192;15.670;2023-09-08T09:24:28;7.15;;;5.97;;
21941;SDS011;11135;54.192;15.670;2023-09-08T09:27:57;7.45;;;6.65;;
21941;SDS011;11135;54.192;15.670;2023-09-08T09:31:29;9.00;;;5.80;;
21941;SDS011;11135;54.192;15.670;2023-09-08T09:34:57;9.38;;;6.45;;
21941;SDS011;11135;54.192;15.670;2023-09-08T09:38:25;8.52;;;5.95;;
21941;SDS011;11135;54.192;15.670;2023-09-08T09:41:53;6.68;;;5.70;;
21941;SDS011;11135;54.192;15.670;2023-09-08T09:45:21;7.68;;;5.50;;
21941;SDS011;11135;54.192;15.670;2023-09-08T09:48:53;9.65;;;5.82;;
21941;SDS011;11135;54.192;15.670;2023-09-08T09:52:21;7.40;;;5.70;;
21941;SDS011;11135;54.192;15.670;2023-09-08T09:55:49;9.77;;;5.55;;
21941;SDS011;11135;54.192;15.670;2023-09-08T09:59:15;6.85;;;6.05;;
21941;SDS011;11135;54.192;15.670;2023-09-08T10:02:41;6.63;;;5.82;;
21941;SDS011;11135;54.192;15.670;2023-09-08T10:06:10;7.25;;;5.97;;
21941;SDS011;11135;54.192;15.670;2023-09-08T10:09:36;7.07;;;5.35;;
21941;SDS011;11135;54.192;15.670;2023-09-08T10:13:04;8.05;;;5.28;;
21941;SDS011;11135;54.192;15.670;2023-09-08T10:16:31;11.00;;;6.07;;
21941;SDS011;11135;54.192;15.670;2023-09-08T10:20:00;7.35;;;5.40;;
21941;SDS011;11135;54.192;15.670;2023-09-08T10:23:38;6.15;;;5.55;;
21941;SDS011;11135;54.192;15.670;2023-09-08T10:27:08;6.10;;;5.00;;
21941;SDS011;11135;54.192;15.670;2023-09-08T10:30:34;6.05;;;5.15;;
21941;SDS011;11135;54.192;15.670;2023-09-08T10:34:02;8.85;;;5.55;;
21941;SDS011;11135;54.192;15.670;2023-09-08T10:37:28;8.02;;;5.20;;
21941;SDS011;11135;54.192;15.670;2023-09-08T10:48:06;8.70;;;7.00;;
21941;SDS011;11135;54.192;15.670;2023-09-08T10:51:35;9.80;;;7.35;;
21941;SDS011;11135;54.192;15.670;2023-09-08T10:55:01;8.27;;;7.28;;
21941;SDS011;11135;54.192;15.670;2023-09-08T10:58:32;8.88;;;8.07;;
21941;SDS011;11135;54.192;15.670;2023-09-08T11:02:03;8.90;;;7.88;;
21941;SDS011;11135;54.192;15.670;2023-09-08T11:05:32;8.35;;;7.55;;
21941;SDS011;11135;54.192;15.670;2023-09-08T11:09:05;8.98;;;7.30;;
21941;SDS011;11135;54.192;15.670;2023-09-08T11:12:32;8.82;;;7.43;;
21941;SDS011;11135;54.192;15.670;2023-09-08T11:15:59;7.72;;;7.03;;
21941;SDS011;11135;54.192;15.670;2023-09-08T11:19:42;11.55;;;7.10;;
21941;SDS011;11135;54.192;15.670;2023-09-08T11:23:11;6.85;;;6.25;;
21941;SDS011;11135;54.192;15.670;2023-09-08T11:26:37;9.63;;;8.32;;
21941;SDS011;11135;54.192;15.670;2023-09-08T11:30:04;9.70;;;7.57;;
21941;SDS011;11135;54.192;15.670;2023-09-08T11:33:33;8.90;;;7.78;;
21941;SDS011;11135;54.192;15.670;2023-09-08T11:37:05;8.65;;;7.65;;
21941;SDS011;11135;54.192;15.670;2023-09-08T11:40:34;9.23;;;7.50;;
21941;SDS011;11135;54.192;15.670;2023-09-08T11:44:02;10.02;;;8.25;;
21941;SDS011;11135;54.192;15.670;2023-09-08T11:47:31;8.85;;;7.95;;
21941;SDS011;11135;54.192;15.670;2023-09-08T11:50:58;9.27;;;7.55;;
21941;SDS011;11135;54.192;15.670;2023-09-08T11:54:25;10.88;;;7.45;;
21941;SDS011;11135;54.192;15.670;2023-09-08T11:57:55;7.63;;;6.88;;
21941;SDS011;11135;54.192;15.670;2023-09-08T12:01:22;9.30;;;8.40;;
21941;SDS011;11135;54.192;15.670;2023-09-08T12:08:28;10.65;;;6.78;;
21941;SDS011;11135;54.192;15.670;2023-09-08T12:11:55;8.75;;;7.38;;
21941;SDS011;11135;54.192;15.670;2023-09-08T12:15:34;8.93;;;8.00;;
21941;SDS011;11135;54.192;15.670;2023-09-08T12:19:01;8.50;;;7.13;;
21941;SDS011;11135;54.192;15.670;2023-09-08T12:22:27;13.02;;;8.20;;
21941;SDS011;11135;54.192;15.670;2023-09-08T12:25:53;10.68;;;7.75;;
21941;SDS011;11135;54.192;15.670;2023-09-08T12:29:19;9.38;;;7.25;;
21941;SDS011;11135;54.192;15.670;2023-09-08T12:32:49;8.27;;;6.88;;
21941;SDS011;11135;54.192;15.670;2023-09-08T12:36:15;9.55;;;7.00;;
21941;SDS011;11135;54.192;15.670;2023-09-08T12:39:41;11.98;;;7.13;;
21941;SDS011;11135;54.192;15.670;2023-09-08T12:43:09;8.45;;;7.07;;
21941;SDS011;11135;54.192;15.670;2023-09-08T12:46:51;11.80;;;8.10;;
21941;SDS011;11135;54.192;15.670;2023-09-08T12:50:19;9.25;;;6.50;;
21941;SDS011;11135;54.192;15.670;2023-09-08T12:53:46;7.40;;;6.70;;
21941;SDS011;11135;54.192;15.670;2023-09-08T12:57:12;8.93;;;6.40;;
21941;SDS011;11135;54.192;15.670;2023-09-08T13:00:38;10.40;;;7.07;;
21941;SDS011;11135;54.192;15.670;2023-09-08T13:04:05;8.00;;;7.20;;
21941;SDS011;11135;54.192;15.670;2023-09-08T13:07:34;8.85;;;6.43;;
21941;SDS011;11135;54.192;15.670;2023-09-08T13:11:03;8.55;;;6.85;;
21941;SDS011;11135;54.192;15.670;2023-09-08T13:14:32;8.73;;;6.75;;
21941;SDS011;11135;54.192;15.670;2023-09-08T13:18:02;6.43;;;5.82;;
21941;SDS011;11135;54.192;15.670;2023-09-08T13:21:30;7.07;;;6.40;;
21941;SDS011;11135;54.192;15.670;2023-09-08T13:25:01;8.15;;;6.65;;
21941;SDS011;11135;54.192;15.670;2023-09-08T13:28:28;9.32;;;6.60;;
21941;SDS011;11135;54.192;15.670;2023-09-08T13:31:54;7.50;;;6.75;;
21941;SDS011;11135;54.192;15.670;2023-09-08T13:35:22;6.85;;;6.25;;
21941;SDS011;11135;54.192;15.670;2023-09-08T13:38:51;6.80;;;6.07;;
21941;SDS011;11135;54.192;15.670;2023-09-08T13:42:20;10.60;;;7.07;;
21941;SDS011;11135;54.192;15.670;2023-09-08T13:45:47;7.80;;;6.27;;
21941;SDS011;11135;54.192;15.670;2023-09-08T13:49:14;9.73;;;6.82;;
21941;SDS011;11135;54.192;15.670;2023-09-08T13:52:41;8.77;;;7.05;;
21941;SDS011;11135;54.192;15.670;2023-09-08T13:56:12;8.63;;;7.63;;
21941;SDS011;11135;54.192;15.670;2023-09-08T13:59:44;9.68;;;7.32;;
21941;SDS011;11135;54.192;15.670;2023-09-08T14:03:11;8.02;;;7.03;;
21941;SDS011;11135;54.192;15.670;2023-09-08T14:06:46;8.70;;;7.03;;
21941;SDS011;11135;54.192;15.670;2023-09-08T14:10:21;8.50;;;7.03;;
21941;SDS011;11135;54.192;15.670;2023-09-08T14:14:00;8.13;;;6.97;;
21941;SDS011;11135;54.192;15.670;2023-09-08T14:17:35;8.18;;;7.15;;
21941;SDS011;11135;54.192;15.670;2023-09-08T14:21:04;8.23;;;6.45;;
21941;SDS011;11135;54.192;15.670;2023-09-08T14:24:32;12.23;;;6.40;;
21941;SDS011;11135;54.192;15.670;2023-09-08T14:27:58;7.38;;;6.07;;
21941;SDS011;11135;54.192;15.670;2023-09-08T14:31:29;6.90;;;6.07;;
21941;SDS011;11135;54.192;15.670;2023-09-08T14:35:02;7.53;;;6.28;;
21941;SDS011;11135;54.192;15.670;2023-09-08T14:38:31;9.93;;;6.60;;
21941;SDS011;11135;54.192;15.670;2023-09-08T14:42:02;7.95;;;5.88;;
21941;SDS011;11135;54.192;15.670;2023-09-08T14:45:28;7.88;;;5.38;;
21941;SDS011;11135;54.192;15.670;2023-09-08T14:48:54;7.65;;;5.82;;
21941;SDS011;11135;54.192;15.670;2023-09-08T14:52:23;8.05;;;5.90;;
21941;SDS011;11135;54.192;15.670;2023-09-08T14:55:49;7.63;;;5.68;;
21941;SDS011;11135;54.192;15.670;2023-09-08T14:59:20;8.80;;;6.13;;
21941;SDS011;11135;54.192;15.670;2023-09-08T15:02:46;7.28;;;6.40;;
21941;SDS011;11135;54.192;15.670;2023-09-08T15:06:13;8.25;;;5.90;;
21941;SDS011;11135;54.192;15.670;2023-09-08T15:09:41;6.97;;;5.68;;
21941;SDS011;11135;54.192;15.670;2023-09-08T15:13:09;6.97;;;6.28;;
21941;SDS011;11135;54.192;15.670;2023-09-08T15:16:34;6.97;;;5.97;;
21941;SDS011;11135;54.192;15.670;2023-09-08T15:20:01;7.00;;;5.93;;
21941;SDS011;11135;54.192;15.670;2023-09-08T15:23:26;6.78;;;5.97;;
21941;SDS011;11135;54.192;15.670;2023-09-08T15:26:55;6.72;;;6.03;;
21941;SDS011;11135;54.192;15.670;2023-09-08T15:30:23;8.60;;;6.50;;
21941;SDS011;11135;54.192;15.670;2023-09-08T15:33:53;7.90;;;5.80;;
21941;SDS011;11135;54.192;15.670;2023-09-08T15:37:21;7.53;;;5.88;;
21941;SDS011;11135;54.192;15.670;2023-09-08T15:44:32;7.20;;;6.30;;
21941;SDS011;11135;54.192;15.670;2023-09-08T15:47:58;7.38;;;6.07;;
21941;SDS011;11135;54.192;15.670;2023-09-08T15:51:25;6.80;;;6.10;;
21941;SDS011;11135;54.192;15.670;2023-09-08T15:54:52;7.63;;;6.22;;
21941;SDS011;11135;54.192;15.670;2023-09-08T15:58:29;7.40;;;6.13;;
21941;SDS011;11135;54.192;15.670;2023-09-08T16:01:59;9.02;;;6.60;;
21941;SDS011;11135;54.192;15.670;2023-09-08T16:05:25;7.82;;;6.32;;
21941;SDS011;11135;54.192;15.670;2023-09-08T16:08:54;8.32;;;6.00;;
21941;SDS011;11135;54.192;15.670;2023-09-08T16:12:20;7.95;;;6.15;;
21941;SDS011;11135;54.192;15.670;2023-09-08T16:15:48;7.95;;;6.97;;
21941;SDS011;11135;54.192;15.670;2023-09-08T16:19:16;8.20;;;6.07;;
21941;SDS011;11135;54.192;15.670;2023-09-08T16:22:42;6.35;;;5.70;;
21941;SDS011;11135;54.192;15.670;2023-09-08T16:26:10;7.68;;;6.07;;
21941;SDS011;11135;54.192;15.670;2023-09-08T16:29:36;8.70;;;5.70;;
21941;SDS011;11135;54.192;15.670;2023-09-08T16:33:04;9.82;;;6.18;;
21941;SDS011;11135;54.192;15.670;2023-09-08T16:36:33;11.00;;;6.70;;
21941;SDS011;11135;54.192;15.670;2023-09-08T16:39:59;6.88;;;6.15;;
21941;SDS011;11135;54.192;15.670;2023-09-08T16:43:26;11.07;;;6.25;;
21941;SDS011;11135;54.192;15.670;2023-09-08T16:46:54;8.15;;;6.85;;
21941;SDS011;11135;54.192;15.670;2023-09-08T16:50:22;10.32;;;8.35;;
21941;SDS011;11135;54.192;15.670;2023-09-08T16:53:51;10.15;;;8.65;;
21941;SDS011;11135;54.192;15.670;2023-09-08T16:57:21;9.13;;;7.95;;
21941;SDS011;11135;54.192;15.670;2023-09-08T17:00:47;10.07;;;6.75;;
21941;SDS011;11135;54.192;15.670;2023-09-08T17:04:15;12.90;;;6.63;;
21941;SDS011;11135;54.192;15.670;2023-09-08T17:07:40;8.95;;;6.55;;
21941;SDS011;11135;54.192;15.670;2023-09-08T17:11:14;13.70;;;7.68;;
21941;SDS011;11135;54.192;15.670;2023-09-08T17:14:47;11.18;;;7.40;;
21941;SDS011;11135;54.192;15.670;2023-09-08T17:18:21;13.88;;;7.25;;
21941;SDS011;11135;54.192;15.670;2023-09-08T17:21:48;10.02;;;7.50;;
21941;SDS011;11135;54.192;15.670;2023-09-08T17:25:15;14.02;;;7.40;;
21941;SDS011;11135;54.192;15.670;2023-09-08T17:28:43;8.00;;;6.82;;
21941;SDS011;11135;54.192;15.670;2023-09-08T17:32:13;11.65;;;7.68;;
21941;SDS011;11135;54.192;15.670;2023-09-08T17:35:38;14.90;;;8.70;;
21941;SDS011;11135;54.192;15.670;2023-09-08T17:39:05;13.10;;;8.38;;
21941;SDS011;11135;54.192;15.670;2023-09-08T17:42:33;11.43;;;8.38;;
21941;SDS011;11135;54.192;15.670;2023-09-08T17:46:04;14.20;;;8.40;;
21941;SDS011;11135;54.192;15.670;2023-09-08T17:49:30;10.93;;;8.65;;
21941;SDS011;11135;54.192;15.670;2023-09-08T17:52:58;12.30;;;8.45;;
21941;SDS011;11135;54.192;15.670;2023-09-08T17:56:24;10.15;;;8.25;;
21941;SDS011;11135;54.192;15.670;2023-09-08T17:59:51;9.75;;;8.48;;
21941;SDS011;11135;54.192;15.670;2023-09-08T18:03:19;9.80;;;8.20;;
21941;SDS011;11135;54.192;15.670;2023-09-08T18:06:46;8.93;;;7.97;;
21941;SDS011;11135;54.192;15.670;2023-09-08T18:10:18;12.75;;;8.98;;
21941;SDS011;11135;54.192;15.670;2023-09-08T18:13:49;13.93;;;8.75;;
21941;SDS011;11135;54.192;15.670;2023-09-08T18:17:16;14.15;;;9.00;;
21941;SDS011;11135;54.192;15.670;2023-09-08T18:20:49;10.65;;;9.00;;
21941;SDS011;11135;54.192;15.670;2023-09-08T18:24:15;9.13;;;7.88;;
21941;SDS011;11135;54.192;15.670;2023-09-08T18:27:48;10.48;;;8.23;;
21941;SDS011;11135;54.192;15.670;2023-09-08T18:31:14;9.80;;;8.27;;
21941;SDS011;11135;54.192;15.670;2023-09-08T18:34:40;12.20;;;8.45;;
21941;SDS011;11135;54.192;15.670;2023-09-08T18:38:08;11.70;;;8.82;;
21941;SDS011;11135;54.192;15.670;2023-09-08T18:41:37;11.32;;;8.60;;
21941;SDS011;11135;54.192;15.670;2023-09-08T18:45:06;11.23;;;10.13;;
21941;SDS011;11135;54.192;15.670;2023-09-08T18:48:33;11.68;;;9.45;;
21941;SDS011;11135;54.192;15.670;2023-09-08T18:52:04;11.68;;;9.63;;
21941;SDS011;11135;54.192;15.670;2023-09-08T18:55:35;10.52;;;8.90;;
21941;SDS011;11135;54.192;15.670;2023-09-08T18:59:01;11.63;;;8.68;;
21941;SDS011;11135;54.192;15.670;2023-09-08T19:02:29;14.27;;;9.63;;
21941;SDS011;11135;54.192;15.670;2023-09-08T19:05:57;10.38;;;8.90;;
21941;SDS011;11135;54.192;15.670;2023-09-08T19:09:26;9.80;;;8.60;;
21941;SDS011;11135;54.192;15.670;2023-09-08T19:13:00;13.70;;;9.20;;
21941;SDS011;11135;54.192;15.670;2023-09-08T19:16:27;10.07;;;8.40;;
21941;SDS011;11135;54.192;15.670;2023-09-08T19:19:54;12.60;;;9.68;;
21941;SDS011;11135;54.192;15.670;2023-09-08T19:23:20;13.80;;;9.88;;
21941;SDS011;11135;54.192;15.670;2023-09-08T19:26:47;10.45;;;8.25;;
21941;SDS011;11135;54.192;15.670;2023-09-08T19:30:16;10.00;;;9.00;;
21941;SDS011;11135;54.192;15.670;2023-09-08T19:33:42;12.80;;;9.80;;
21941;SDS011;11135;54.192;15.670;2023-09-08T19:37:10;11.73;;;9.60;;
21941;SDS011;11135;54.192;15.670;2023-09-08T19:40:37;10.88;;;9.65;;
21941;SDS011;11135;54.192;15.670;2023-09-08T19:44:04;10.73;;;9.50;;
21941;SDS011;11135;54.192;15.670;2023-09-08T19:47:32;12.85;;;9.68;;
21941;SDS011;11135;54.192;15.670;2023-09-08T19:50:59;12.07;;;9.85;;
21941;SDS011;11135;54.192;15.670;2023-09-08T19:54:25;13.63;;;9.65;;
21941;SDS011;11135;54.192;15.670;2023-09-08T19:57:52;11.15;;;9.40;;
21941;SDS011;11135;54.192;15.670;2023-09-08T20:01:20;11.77;;;9.98;;
21941;SDS011;11135;54.192;15.670;2023-09-08T20:04:49;13.60;;;10.50;;
21941;SDS011;11135;54.192;15.670;2023-09-08T20:08:18;11.48;;;9.65;;
21941;SDS011;11135;54.192;15.670;2023-09-08T20:11:45;12.35;;;10.40;;
21941;SDS011;11135;54.192;15.670;2023-09-08T20:15:21;11.50;;;9.55;;
21941;SDS011;11135;54.192;15.670;2023-09-08T20:18:47;12.70;;;10.30;;
21941;SDS011;11135;54.192;15.670;2023-09-08T20:22:16;12.32;;;10.18;;
21941;SDS011;11135;54.192;15.670;2023-09-08T20:25:44;11.68;;;10.40;;
21941;SDS011;11135;54.192;15.670;2023-09-08T20:29:09;12.05;;;10.10;;
21941;SDS011;11135;54.192;15.670;2023-09-08T20:32:36;11.43;;;10.27;;